Time;durP1;ratioP1;P1;durP2;ratioP2;P2;SDS_P1;SDS_P2;PMS_P1;PMS_P2;Temp;Humidity;BMP_temperature;BMP_pressure;BME280_temperature;BME280_humidity;BME280_pressure;Samples;Min_cycle;Max_cycle;Signal;HPM_P1;HPM_P2
2022/03/23 00:00:09;;;;;;;37.33;26.05;;;;;;;8.91;54.83;102955.25;5008629;28;20041;-80
2022/03/23 00:02:36;;;;;;;35.92;26.27;;;;;;;8.72;55.22;102931.88;4991607;28;20402;-81
2022/03/23 00:08:34;;;;;;;;;;;;;;;;;;;;;
2022/03/23 00:11:31;;;;;;;35.92;25.27;;;;;;;8.66;54.75;102913.16;5005377;28;20052;-80
2022/03/23 00:14:34;;;;;;;38.10;25.98;;;;;;;8.61;55.35;102917.69;4893463;29;20440;-81
2022/03/23 00:17:46;;;;;;;;;;;;;;;;;;;;;
2022/03/23 00:20:35;;;;;;;38.67;25.20;;;;;;;8.58;55.03;102904.88;4920267;29;20039;-81
2022/03/23 00:23:08;;;;;;;36.15;26.20;;;;;;;8.66;55.79;102933.84;4920509;29;20054;-82
2022/03/23 00:26:09;;;;;;;;;;;;;;;;;;;;;
2022/03/23 00:28:50;;;;;;;;;;;;;;;;;;;;;
2022/03/23 00:31:24;;;;;;;35.97;26.02;;;;;;;8.50;55.93;102928.44;4927192;29;20407;-81
2022/03/23 00:34:17;;;;;;;;;;;;;;;;;;;;;
2022/03/23 00:37:14;;;;;;;34.92;25.88;;;;;;;8.43;55.56;102930.44;4895177;29;20055;-81
2022/03/23 00:40:09;;;;;;;35.03;26.50;;;;;;;8.35;56.12;102924.69;4894056;29;20421;-80
2022/03/23 00:42:45;;;;;;;34.28;26.27;;;;;;;8.54;56.12;102950.69;4903948;29;20031;-81
2022/03/23 00:45:28;;;;;;;36.85;26.77;;;;;;;8.34;56.22;102923.00;4928324;29;20038;-81
2022/03/23 00:48:30;;;;;;;;;;;;;;;;;;;;;
2022/03/23 00:54:37;;;;;;;;;;;;;;;;;;;;;
2022/03/23 00:57:06;;;;;;;34.92;26.20;;;;;;;8.25;56.52;102913.00;5003702;28;20072;-81
2022/03/23 00:59:52;;;;;;;36.95;26.48;;;;;;;8.24;57.25;102908.72;5007421;28;20038;-80
2022/03/23 01:03:56;;;;;;;;;;;;;;;;;;;;;
2022/03/23 01:10:24;;;;;;;;;;;;;;;;;;;;;
2022/03/23 01:16:50;;;;;;;38.55;26.13;;;;;;;8.10;57.18;102903.25;4890921;29;20408;-81
2022/03/23 01:23:26;;;;;;;37.85;26.35;;;;;;;8.24;56.92;102942.34;4904954;29;20080;-81
2022/03/23 01:26:02;;;;;;;36.35;26.77;;;;;;;7.96;56.67;102902.00;4908627;29;20040;-81
2022/03/23 01:28:39;;;;;;;38.03;26.58;;;;;;;8.06;57.00;102922.34;4892943;29;20063;-81
2022/03/23 01:31:12;;;;;;;37.15;26.05;;;;;;;8.14;57.56;102933.25;4908132;29;20083;-80
2022/03/23 01:33:38;;;;;;;38.38;26.13;;;;;;;8.01;57.39;102919.09;4906293;29;20127;-80
2022/03/23 01:36:08;;;;;;;35.78;26.65;;;;;;;7.94;57.99;102903.81;4905911;29;20555;-80
2022/03/23 01:38:34;;;;;;;37.10;25.90;;;;;;;8.07;58.00;102934.38;4907836;29;20541;-81
2022/03/23 01:40:59;;;;;;;37.40;26.95;;;;;;;7.87;58.01;102906.69;4908993;29;20122;-81
2022/03/23 01:43:34;;;;;;;;;;;;;;;;;;;;;
2022/03/23 01:46:05;;;;;;;33.13;25.67;;;;;;;7.96;57.74;102922.69;4914685;29;20391;-81
2022/03/23 01:48:41;;;;;;;40.42;26.23;;;;;;;7.93;58.17;102927.97;4911943;29;20031;-82
2022/03/23 01:51:10;;;;;;;35.30;25.88;;;;;;;7.75;57.52;102889.91;4927355;29;20035;-81
2022/03/23 01:53:35;;;;;;;37.30;25.98;;;;;;;7.93;58.36;102922.81;4995499;28;20100;-81
2022/03/23 01:56:29;;;;;;;;;;;;;;;;;;;;;
2022/03/23 01:59:00;;;;;;;38.88;25.92;;;;;;;7.55;58.10;102869.13;5027181;28;20038;-81
2022/03/23 02:01:28;;;;;;;37.22;27.20;;;;;;;7.45;58.57;102868.59;5008944;28;20029;-81
2022/03/23 02:03:59;;;;;;;37.10;26.55;;;;;;;7.62;58.51;102889.50;5008631;28;20026;-81
2022/03/23 02:06:55;;;;;;;;;;;;;;;;;;;;;
2022/03/23 02:09:27;;;;;;;40.75;27.52;;;;;;;7.28;59.76;102866.59;5006899;28;20042;-81
2022/03/23 02:12:11;;;;;;;;;;;;;;;;;;;;;
2022/03/23 02:14:37;;;;;;;37.80;27.67;;;;;;;7.39;59.36;102885.16;5011625;28;20025;-81
2022/03/23 02:17:13;;;;;;;36.67;25.88;;;;;;;7.28;59.12;102864.03;5008823;28;20024;-81
2022/03/23 02:19:38;;;;;;;37.92;27.75;;;;;;;7.42;58.76;102895.38;5009549;28;20067;-81
2022/03/23 02:22:04;;;;;;;39.38;26.77;;;;;;;7.35;58.83;102883.59;5027352;28;20029;-81
2022/03/23 02:24:32;;;;;;;38.17;26.40;;;;;;;7.28;59.14;102874.34;5005584;28;20045;-80
2022/03/23 02:27:02;;;;;;;38.58;26.90;;;;;;;7.33;59.33;102898.28;5006714;28;20041;-81
2022/03/23 02:29:32;;;;;;;37.63;26.83;;;;;;;7.17;59.80;102884.25;5025321;28;20037;-80
2022/03/23 02:32:01;;;;;;;36.78;27.02;;;;;;;7.08;59.52;102864.72;5028896;28;20053;-81
2022/03/23 02:34:29;;;;;;;36.60;25.83;;;;;;;7.02;60.69;102858.94;5004917;28;20029;-79
2022/03/23 02:36:56;;;;;;;34.80;26.40;;;;;;;7.10;60.00;102867.25;5030135;28;20028;-80
2022/03/23 02:39:28;;;;;;;40.65;27.95;;;;;;;7.11;59.83;102879.25;5011516;28;20026;-81
2022/03/23 02:42:04;;;;;;;37.53;27.55;;;;;;;7.17;60.61;102889.41;5010290;28;20041;-82
2022/03/23 02:44:39;;;;;;;36.50;27.00;;;;;;;6.93;60.17;102855.75;4992862;28;20026;-81
2022/03/23 02:47:08;;;;;;;39.38;27.35;;;;;;;6.85;60.52;102850.03;4976764;28;20041;-81
2022/03/23 02:49:39;;;;;;;40.20;27.83;;;;;;;6.82;60.93;102857.03;4980087;28;20030;-81
2022/03/23 02:52:07;;;;;;;38.65;27.95;;;;;;;6.80;60.11;102854.50;5010694;28;20494;-80
2022/03/23 03:03:33;;;;;;;37.10;27.20;;;;;;;6.84;61.38;102884.47;5030251;28;20136;-81
2022/03/23 03:06:04;;;;;;;38.70;26.85;;;;;;;6.64;61.63;102859.31;5029881;28;20021;-80
2022/03/23 03:08:48;;;;;;;40.17;27.33;;;;;;;6.68;61.65;102875.53;5018683;28;20100;-80
2022/03/23 03:11:17;;;;;;;38.08;27.60;;;;;;;6.73;61.77;102896.88;5010672;28;20025;-80
2022/03/23 03:13:52;;;;;;;35.85;26.77;;;;;;;6.58;60.65;102858.66;5010492;28;20029;-80
2022/03/23 03:16:19;;;;;;;38.78;27.17;;;;;;;6.43;61.57;102859.19;4993046;28;20557;-80
2022/03/23 03:18:58;;;;;;;38.70;28.42;;;;;;;6.37;61.41;102849.91;5023120;28;20033;-80
2022/03/23 03:21:27;;;;;;;36.88;27.70;;;;;;;6.75;62.12;102913.13;5012356;28;20033;-80
2022/03/23 03:24:00;;;;;;;36.95;27.15;;;;;;;6.63;61.93;102903.19;5012243;28;20032;-80
2022/03/23 03:26:31;;;;;;;40.25;27.17;;;;;;;6.43;62.00;102860.03;5029442;28;20026;-79
2022/03/23 03:29:04;;;;;;;37.35;26.92;;;;;;;6.48;61.19;102873.63;5011040;28;20033;-80
2022/03/23 03:31:32;;;;;;;38.63;27.90;;;;;;;6.71;61.39;102911.56;5010726;28;20025;-80
2022/03/23 03:34:05;;;;;;;37.25;27.92;;;;;;;6.30;61.47;102851.81;5029930;28;20108;-80
2022/03/23 03:36:36;;;;;;;37.53;26.58;;;;;;;6.55;61.46;102900.03;5029523;28;20320;-79
2022/03/23 03:39:13;;;;;;;37.42;29.02;;;;;;;6.44;62.32;102877.16;4997266;28;20034;-80
2022/03/23 03:41:41;;;;;;;38.10;27.10;;;;;;;6.33;63.37;102885.22;4991864;28;20075;-81
2022/03/23 03:44:11;;;;;;;38.30;28.83;;;;;;;6.23;64.18;102873.50;4991674;28;20030;-80
2022/03/23 03:46:39;;;;;;;35.38;27.77;;;;;;;6.38;63.46;102898.81;5009226;28;20029;-81
2022/03/23 03:49:18;;;;;;;;;;;;;;;;;;;;;
2022/03/23 03:51:52;;;;;;;38.50;28.27;;;;;;;6.07;63.03;102859.41;5030088;28;20033;-81
2022/03/23 03:54:18;;;;;;;39.83;28.75;;;;;;;6.05;62.95;102868.91;5011296;28;20026;-80
2022/03/23 03:56:44;;;;;;;38.78;27.08;;;;;;;6.04;62.49;102867.22;5029585;28;20022;-80
2022/03/23 03:59:13;;;;;;;36.83;28.67;;;;;;;6.01;63.31;102883.59;4995803;28;20050;-80
2022/03/23 04:01:38;;;;;;;40.75;29.17;;;;;;;6.07;62.44;102886.00;4975775;28;20033;-80
2022/03/23 04:04:06;;;;;;;40.28;27.17;;;;;;;6.02;62.35;102889.59;5009233;28;20032;-81
2022/03/23 04:06:32;;;;;;;38.70;28.03;;;;;;;5.96;61.87;102882.06;4991267;28;20033;-79
2022/03/23 04:08:59;;;;;;;38.25;27.67;;;;;;;6.00;62.28;102886.22;5021785;28;20424;-79
2022/03/23 04:11:26;;;;;;;36.27;28.23;;;;;;;6.00;62.39;102886.22;5011454;28;20173;-79
2022/03/23 04:13:53;;;;;;;38.25;28.08;;;;;;;5.94;61.95;102896.72;5009076;28;20068;-79
2022/03/23 04:16:22;;;;;;;38.33;29.27;;;;;;;5.84;62.48;102875.50;5008910;28;20050;-80
2022/03/23 04:18:50;;;;;;;40.00;28.13;;;;;;;5.95;62.05;102898.41;5019773;28;20250;-80
2022/03/23 04:21:16;;;;;;;38.45;28.70;;;;;;;6.15;62.50;102937.31;5028308;28;20029;-79
2022/03/23 04:23:53;;;;;;;39.42;28.40;;;;;;;5.93;62.05;102900.19;5028332;28;20025;-79
2022/03/23 04:26:23;;;;;;;36.45;28.58;;;;;;;5.78;61.88;102873.94;5029127;28;20022;-80
2022/03/23 04:28:53;;;;;;;37.75;27.85;;;;;;;5.95;62.32;102916.44;5016443;28;20042;-79
2022/03/23 04:31:24;;;;;;;36.60;27.50;;;;;;;5.73;63.14;102877.53;5008665;28;20506;-81
2022/03/23 04:33:55;;;;;;;37.15;27.30;;;;;;;5.82;63.23;102909.03;4990893;28;20071;-80
2022/03/23 04:36:33;;;;;;;;;;;;;;;;;;;;;
2022/03/23 04:38:58;;;;;;;35.33;27.15;;;;;;;5.73;62.81;102888.66;5021501;28;20025;-80
2022/03/23 04:41:24;;;;;;;37.90;28.55;;;;;;;5.94;62.79;102943.06;4998451;28;20040;-81
2022/03/23 04:43:51;;;;;;;37.53;27.73;;;;;;;5.91;63.76;102937.97;5008511;28;20026;-80
2022/03/23 04:46:17;;;;;;;38.20;28.07;;;;;;;5.91;63.02;102948.28;5014174;28;20037;-80
2022/03/23 04:48:42;;;;;;;38.28;28.15;;;;;;;5.79;63.88;102937.44;5030242;28;20052;-81
2022/03/23 04:51:08;;;;;;;33.33;27.10;;;;;;;5.68;63.18;102925.72;5013543;28;20026;-81
2022/03/23 04:53:35;;;;;;;37.25;27.88;;;;;;;5.62;63.34;102925.91;4989683;28;20028;-80
2022/03/23 04:56:03;;;;;;;38.30;28.63;;;;;;;5.63;64.25;102943.91;5014571;28;20477;-80
2022/03/23 04:58:38;;;;;;;38.07;28.50;;;;;;;5.51;63.91;102939.94;5027761;28;20099;-81
2022/03/23 05:01:21;;;;;;;37.53;28.15;;;;;;;5.50;64.24;102943.34;5001138;28;20755;-83
2022/03/23 05:03:47;;;;;;;38.10;28.10;;;;;;;5.51;64.19;102957.09;4992257;28;20394;-81
2022/03/23 05:06:12;;;;;;;39.58;29.27;;;;;;;5.44;64.61;102947.81;4995244;28;20026;-81
2022/03/23 05:08:37;;;;;;;38.47;28.63;;;;;;;5.50;64.54;102955.38;4991146;28;20077;-80
2022/03/23 05:11:03;;;;;;;38.58;28.70;;;;;;;5.37;64.49;102941.16;5008734;28;20478;-81
2022/03/23 05:13:28;;;;;;;38.65;29.55;;;;;;;5.38;64.87;102953.13;5007895;28;20040;-82
2022/03/23 05:15:55;;;;;;;39.60;29.38;;;;;;;5.31;64.83;102947.31;5008630;28;20022;-80
2022/03/23 05:18:20;;;;;;;39.80;29.70;;;;;;;5.32;64.63;102949.81;5013180;28;20089;-81
2022/03/23 05:20:46;;;;;;;40.92;30.02;;;;;;;5.37;64.74;102961.75;4993590;28;20022;-84
2022/03/23 05:23:11;;;;;;;39.42;28.98;;;;;;;5.28;64.86;102968.81;5005712;28;20034;-84
2022/03/23 05:25:37;;;;;;;34.65;28.10;;;;;;;5.19;64.71;102947.63;4990664;28;20021;-85
2022/03/23 05:28:06;;;;;;;38.92;28.88;;;;;;;5.22;65.15;102963.84;5009442;28;20034;-83
2022/03/23 05:30:32;;;;;;;34.92;28.50;;;;;;;5.24;65.39;102972.34;4990752;28;20496;-83
2022/03/23 05:33:04;;;;;;;39.50;29.35;;;;;;;5.22;65.29;102968.13;4990804;28;20037;-84
2022/03/23 05:35:30;;;;;;;40.17;29.33;;;;;;;5.21;65.22;102967.25;5008645;28;20022;-80
2022/03/23 05:37:55;;;;;;;39.20;29.10;;;;;;;5.18;64.89;102972.50;5006002;28;20184;-83
2022/03/23 05:40:21;;;;;;;42.95;29.52;;;;;;;5.21;65.07;102966.41;5007962;28;20474;-82
2022/03/23 05:42:47;;;;;;;37.30;28.92;;;;;;;5.11;65.55;102952.97;4990447;28;20057;-83
2022/03/23 05:45:13;;;;;;;41.75;30.70;;;;;;;5.18;65.89;102972.50;4990627;28;20028;-83
2022/03/23 05:47:40;;;;;;;37.72;28.95;;;;;;;5.19;66.19;102965.63;4992888;28;20029;-84
2022/03/23 05:50:07;;;;;;;39.40;30.40;;;;;;;5.10;66.03;102969.25;4993492;28;20022;-83
2022/03/23 05:52:33;;;;;;;42.58;30.42;;;;;;;5.13;65.69;102974.34;5008447;28;20120;-85
2022/03/23 05:55:01;;;;;;;40.10;30.63;;;;;;;5.11;65.73;102964.97;5009566;28;20101;-84
2022/03/23 05:57:26;;;;;;;42.13;30.33;;;;;;;5.12;66.11;102970.06;5019452;28;20112;-83
2022/03/23 05:59:52;;;;;;;39.50;30.40;;;;;;;5.11;66.64;102972.69;5010848;28;20017;-84
2022/03/23 06:02:17;;;;;;;39.55;30.42;;;;;;;5.07;66.84;102969.34;5026789;28;20385;-85
2022/03/23 06:04:42;;;;;;;37.97;30.70;;;;;;;5.17;66.35;102977.69;5010069;28;20132;-83
2022/03/23 06:07:08;;;;;;;43.17;30.65;;;;;;;5.19;66.75;102984.47;5011424;28;20113;-82
2022/03/23 06:09:33;;;;;;;39.95;29.67;;;;;;;5.17;66.61;102970.81;5006634;28;20037;-83
2022/03/23 06:12:00;;;;;;;40.47;30.13;;;;;;;5.15;66.32;102972.56;5004087;28;20045;-84
2022/03/23 06:14:26;;;;;;;40.30;30.67;;;;;;;5.21;66.40;102982.69;5026251;28;20516;-83
2022/03/23 06:16:52;;;;;;;40.13;30.85;;;;;;;5.15;66.51;102972.56;5008015;28;20021;-84
2022/03/23 06:19:23;;;;;;;38.25;30.90;;;;;;;5.22;66.59;102984.41;5025748;28;20033;-86
2022/03/23 06:21:48;;;;;;;41.10;31.08;;;;;;;5.19;67.01;102984.47;5011714;28;20116;-83
2022/03/23 06:24:14;;;;;;;41.42;30.27;;;;;;;5.29;66.77;102991.09;5024326;28;20120;-84
2022/03/23 06:26:39;;;;;;;39.50;29.67;;;;;;;5.32;66.11;102990.16;5006011;28;20030;-81
2022/03/23 06:29:04;;;;;;;41.05;30.75;;;;;;;5.35;66.28;102994.41;5006345;28;20021;-80
2022/03/23 06:31:29;;;;;;;39.40;30.10;;;;;;;5.33;66.02;102977.28;5024204;28;20491;-80
2022/03/23 06:33:55;;;;;;;42.30;30.92;;;;;;;5.37;66.62;102996.03;5025490;28;20453;-80
2022/03/23 06:36:20;;;;;;;40.95;29.65;;;;;;;5.41;65.77;102994.25;5006918;28;20017;-81
2022/03/23 06:38:48;;;;;;;40.90;31.67;;;;;;;5.47;65.66;102994.94;5020893;28;20219;-81
2022/03/23 06:41:13;;;;;;;41.60;30.67;;;;;;;5.46;65.94;102992.41;5015757;28;20022;-85
2022/03/23 06:43:39;;;;;;;38.30;30.33;;;;;;;5.51;66.24;103001.69;5016051;28;20040;-80
2022/03/23 06:46:04;;;;;;;42.60;31.90;;;;;;;5.54;66.11;102995.63;5026203;28;20040;-85
2022/03/23 06:48:30;;;;;;;41.00;30.38;;;;;;;5.55;65.75;102992.16;5014635;28;20112;-84
2022/03/23 06:50:56;;;;;;;36.92;29.55;;;;;;;5.63;66.10;103000.53;4997299;28;20021;-83
2022/03/23 06:53:21;;;;;;;44.00;31.15;;;;;;;5.69;65.25;103009.81;5001535;28;20040;-85
2022/03/23 06:55:47;;;;;;;39.60;30.65;;;;;;;5.71;65.57;103014.03;5017624;28;20041;-84
2022/03/23 06:58:14;;;;;;;40.58;31.30;;;;;;;5.72;64.74;102995.13;5019386;28;20041;-85
2022/03/23 07:00:40;;;;;;;43.08;31.63;;;;;;;5.94;64.68;103015.19;4998153;28;20034;-87
2022/03/23 07:03:05;;;;;;;40.67;31.30;;;;;;;5.98;64.87;103016.81;4992206;28;20493;-85
2022/03/23 07:05:31;;;;;;;40.38;30.52;;;;;;;5.86;65.20;102993.03;5012871;28;20033;-85
2022/03/23 07:10:42;;;;;;;41.25;31.52;;;;;;;6.05;65.37;103010.59;5016092;28;20057;-87
2022/03/23 07:13:07;;;;;;;41.50;31.83;;;;;;;6.21;66.01;103023.91;5017006;28;20044;-82
2022/03/23 07:15:35;;;;;;;38.72;31.30;;;;;;;6.23;66.05;103028.13;5021093;28;20537;-89
2022/03/23 07:18:00;;;;;;;42.67;33.05;;;;;;;6.15;65.56;102994.00;5012371;28;20030;-82
2022/03/23 07:20:27;;;;;;;45.85;32.30;;;;;;;6.42;65.31;103027.59;5011075;28;20410;-82
2022/03/23 07:22:52;;;;;;;47.20;32.40;;;;;;;6.53;64.66;103026.38;5013387;28;20025;-82
2022/03/23 07:25:17;;;;;;;43.28;32.15;;;;;;;6.42;65.16;103006.97;5010019;28;20022;-83
2022/03/23 07:27:50;;;;;;;47.92;32.75;;;;;;;6.50;64.56;103010.19;5009248;28;20393;-84
2022/03/23 07:30:20;;;;;;;43.53;31.83;;;;;;;6.59;64.37;103020.19;5012676;28;20044;-87
2022/03/23 07:32:45;;;;;;;40.83;32.00;;;;;;;6.52;64.41;102992.94;5018587;28;20021;-87
2022/03/23 07:35:11;;;;;;;43.70;32.47;;;;;;;6.67;65.00;103007.94;5007282;28;20033;-83
2022/03/23 07:37:36;;;;;;;41.95;32.70;;;;;;;6.64;64.58;102997.72;5018573;28;20024;-86
2022/03/23 07:40:03;;;;;;;41.58;31.92;;;;;;;7.02;63.88;103036.97;5015042;28;20104;-85
2022/03/23 07:42:29;;;;;;;39.20;30.52;;;;;;;6.98;62.37;103014.72;5019204;28;20112;-86
2022/03/23 07:44:55;;;;;;;40.97;32.20;;;;;;;7.02;62.17;103003.44;5019495;28;20032;-85
2022/03/23 07:47:20;;;;;;;41.03;32.30;;;;;;;7.07;62.87;103001.56;5009140;28;20742;-86
2022/03/23 07:49:46;;;;;;;41.50;31.17;;;;;;;7.16;62.24;103001.22;4991357;28;20026;-86
2022/03/23 07:52:11;;;;;;;41.38;31.27;;;;;;;7.15;61.13;102994.38;5008824;28;20053;-84
2022/03/23 07:54:37;;;;;;;38.67;30.45;;;;;;;7.41;60.87;103027.94;5011080;28;20120;-85
2022/03/23 07:57:03;;;;;;;42.70;31.25;;;;;;;7.45;61.45;103013.19;5018578;28;20043;-84
2022/03/23 07:59:28;;;;;;;40.97;31.05;;;;;;;7.47;61.48;103001.09;4998633;28;20412;-88
2022/03/23 08:01:53;;;;;;;39.00;29.55;;;;;;;7.72;60.37;103037.25;5020021;28;20028;-84
2022/03/23 08:04:19;;;;;;;38.33;31.83;;;;;;;7.70;60.74;103033.88;4992914;28;20508;-84
2022/03/23 08:06:44;;;;;;;39.70;30.98;;;;;;;7.75;60.24;103031.97;5009052;28;20033;-87
2022/03/23 08:09:09;;;;;;;38.83;30.45;;;;;;;7.84;60.41;103031.66;4990766;28;20030;-85
2022/03/23 08:11:35;;;;;;;43.42;31.70;;;;;;;7.99;61.73;103059.53;4991644;28;20038;-83
2022/03/23 08:14:04;;;;;;;39.75;29.45;;;;;;;8.02;59.10;103053.41;5016003;28;20397;-87
2022/03/23 08:16:29;;;;;;;42.33;31.38;;;;;;;7.98;59.17;103023.44;5010328;28;20072;-86
2022/03/23 08:18:55;;;;;;;39.15;30.27;;;;;;;8.05;60.04;103013.72;5018529;28;20068;-87
2022/03/23 08:21:22;;;;;;;42.15;31.55;;;;;;;8.30;58.40;103050.69;4983708;28;20432;-88
2022/03/23 08:23:48;;;;;;;39.38;31.77;;;;;;;8.28;58.23;103026.66;5008283;28;20038;-86
2022/03/23 08:26:17;;;;;;;41.75;30.73;;;;;;;8.43;58.59;103038.19;5008423;28;20037;-87
2022/03/23 08:28:45;;;;;;;38.20;30.27;;;;;;;8.46;58.76;103038.91;5007771;28;20025;-88
2022/03/23 08:31:11;;;;;;;42.10;31.23;;;;;;;8.41;58.04;103007.22;4992603;28;20037;-86
2022/03/23 08:33:37;;;;;;;37.80;30.30;;;;;;;8.46;57.63;103005.31;5009527;28;20471;-86
2022/03/23 08:36:05;;;;;;;39.20;30.77;;;;;;;8.75;57.83;103031.81;5007385;28;20045;-82
2022/03/23 08:38:30;;;;;;;44.67;33.10;;;;;;;8.88;57.81;103040.75;4990054;28;20034;-83
2022/03/23 08:40:56;;;;;;;44.67;31.58;;;;;;;8.91;57.44;103035.47;5015730;28;20032;-83
2022/03/23 08:43:22;;;;;;;41.50;30.70;;;;;;;8.97;57.29;103024.88;5008189;28;20077;-86
2022/03/23 08:45:47;;;;;;;39.33;30.52;;;;;;;9.16;57.17;103026.72;5007893;28;20476;-81
2022/03/23 08:48:13;;;;;;;36.30;29.40;;;;;;;9.30;57.11;103040.81;5008456;28;20458;-88
2022/03/23 08:50:40;;;;;;;39.00;31.27;;;;;;;9.50;56.95;103052.94;5008267;28;20480;-86
2022/03/23 08:53:06;;;;;;;41.95;33.05;;;;;;;9.52;56.89;103029.59;5007860;28;20021;-85
2022/03/23 08:55:33;;;;;;;37.33;30.30;;;;;;;9.50;56.17;103016.66;4990559;28;20477;-88
2022/03/23 08:57:58;;;;;;;36.28;28.98;;;;;;;9.70;56.41;103012.41;5007959;28;20129;-88
2022/03/23 09:00:24;;;;;;;34.83;29.13;;;;;;;9.70;56.13;103008.06;5007573;28;20537;-88
2022/03/23 09:02:50;;;;;;;36.28;29.42;;;;;;;10.02;54.20;103050.72;4973419;28;20030;-86
2022/03/23 09:05:16;;;;;;;35.42;29.30;;;;;;;10.03;55.48;103038.59;5007945;28;20113;-86
2022/03/23 09:07:42;;;;;;;35.75;29.58;;;;;;;10.01;53.82;103028.31;5001095;28;20032;-86
2022/03/23 09:10:10;;;;;;;38.05;30.00;;;;;;;10.13;53.50;103026.06;5008318;28;20184;-83
2022/03/23 09:12:36;;;;;;;36.47;28.80;;;;;;;10.32;53.02;103053.75;5008140;28;20041;-89
2022/03/23 09:15:02;;;;;;;40.47;30.10;;;;;;;10.26;54.23;103027.22;4990440;28;20040;-87
2022/03/23 09:17:28;;;;;;;37.38;30.65;;;;;;;10.27;53.98;103008.19;4988804;28;20022;-84
2022/03/23 09:19:55;;;;;;;34.00;28.63;;;;;;;10.54;54.14;103038.03;5014586;28;20529;-83
2022/03/23 09:22:21;;;;;;;37.42;30.73;;;;;;;10.59;53.37;103030.88;5026164;28;20410;-87
2022/03/23 09:24:47;;;;;;;39.67;30.60;;;;;;;10.62;53.23;103025.56;5008880;28;20028;-82
2022/03/23 09:27:12;;;;;;;35.38;29.23;;;;;;;10.84;53.29;103034.94;5027262;28;20509;-82
2022/03/23 09:29:39;;;;;;;38.67;30.65;;;;;;;11.00;52.82;103059.25;5027130;28;20381;-82
2022/03/23 09:32:09;;;;;;;34.60;28.80;;;;;;;11.05;51.52;103062.47;5010218;28;20030;-85
2022/03/23 09:34:35;;;;;;;36.75;29.50;;;;;;;11.26;53.23;103051.97;5007690;28;20051;-84
2022/03/23 09:39:45;;;;;;;36.60;29.70;;;;;;;11.38;51.59;103048.75;5007639;28;20393;-84
2022/03/23 09:42:11;;;;;;;36.22;29.63;;;;;;;11.46;51.21;103059.59;5020742;28;20033;-83
2022/03/23 09:44:37;;;;;;;42.72;30.83;;;;;;;11.49;51.25;103058.63;4989989;28;20025;-84
2022/03/23 09:47:05;;;;;;;39.00;29.83;;;;;;;11.53;50.76;103050.59;4989450;28;20026;-85
2022/03/23 09:49:30;;;;;;;38.40;30.53;;;;;;;11.49;49.93;103049.06;5007175;28;20117;-83
2022/03/23 09:51:56;;;;;;;35.88;29.42;;;;;;;11.64;50.58;103063.91;5009756;28;20521;-83
2022/03/23 09:54:22;;;;;;;36.53;29.15;;;;;;;11.73;49.07;103061.75;5017018;28;20025;-84
2022/03/23 09:56:48;;;;;;;36.28;29.67;;;;;;;11.75;49.66;103062.50;5017196;28;20048;-83
2022/03/23 09:59:13;;;;;;;37.00;28.65;;;;;;;11.98;49.59;103050.94;5010132;28;20080;-81
2022/03/23 10:01:49;;;;;;;36.20;28.38;;;;;;;12.02;47.88;103053.31;5019464;28;20488;-82
2022/03/23 10:04:20;;;;;;;34.85;28.38;;;;;;;12.12;47.65;103057.13;5008666;28;20029;-83
2022/03/23 10:07:15;;;;;;;35.53;29.17;;;;;;;12.29;48.04;103058.00;5005454;28;20032;-85
2022/03/23 10:09:49;;;;;;;35.88;27.92;;;;;;;12.42;46.46;103056.41;4997496;28;20061;-85
2022/03/23 10:12:52;;;;;;;33.60;27.60;;;;;;;12.52;47.50;103068.03;5008354;28;20030;-84
2022/03/23 10:15:42;;;;;;;31.70;27.40;;;;;;;12.66;46.65;103064.66;5026769;28;20033;-85
2022/03/23 10:18:44;;;;;;;35.80;28.15;;;;;;;12.82;48.17;103064.66;5026814;28;20033;-85
2022/03/23 10:21:10;;;;;;;35.05;27.70;;;;;;;12.91;46.02;103054.59;5013196;28;20144;-82
2022/03/23 10:23:35;;;;;;;33.45;26.85;;;;;;;13.00;44.73;103053.22;5013279;28;20129;-84
2022/03/23 10:26:14;;;;;;;34.13;27.15;;;;;;;13.19;45.29;103056.47;5026564;28;20517;-85
2022/03/23 10:28:39;;;;;;;;;;;;;;;13.29;47.47;103049.81;4999397;28;20500;-84
2022/03/23 10:31:16;;;;;;;35.67;27.58;;;;;;;13.30;44.85;103040.22;4994110;28;19918;-82
2022/03/23 10:33:43;;;;;;;36.22;27.98;;;;;;;13.50;44.64;103031.25;4988646;28;20034;-84
2022/03/23 10:36:08;;;;;;;35.83;28.60;;;;;;;13.63;45.64;103047.84;5024594;28;20068;-83
2022/03/23 10:38:39;;;;;;;34.72;28.15;;;;;;;13.69;43.35;103044.88;5005360;28;20057;-81
2022/03/23 10:41:11;;;;;;;35.03;28.65;;;;;;;13.73;43.89;103043.78;5006459;28;20149;-84
2022/03/23 10:43:39;;;;;;;33.17;27.80;;;;;;;13.82;42.57;103051.06;5006016;28;20118;-82
2022/03/23 10:46:09;;;;;;;36.05;28.88;;;;;;;13.75;44.32;103031.47;4998738;28;20044;-83
2022/03/23 10:48:35;;;;;;;37.42;29.38;;;;;;;13.88;45.38;103035.94;4988635;28;20138;-84
2022/03/23 10:51:00;;;;;;;38.97;31.27;;;;;;;13.98;45.26;103037.06;4988406;28;20116;-82
2022/03/23 10:53:38;;;;;;;35.83;30.05;;;;;;;14.09;46.29;103040.69;5009043;28;20418;-83
2022/03/23 10:56:04;;;;;;;36.65;30.23;;;;;;;14.16;45.58;103022.88;4992601;28;20034;-85
2022/03/23 10:58:32;;;;;;;34.15;29.10;;;;;;;14.26;44.17;103037.06;5028889;28;20049;-86
2022/03/23 11:01:00;;;;;;;37.55;29.65;;;;;;;14.34;43.99;103034.81;5012038;28;20033;-86
2022/03/23 11:03:43;;;;;;;35.92;27.63;;;;;;;14.42;43.79;103020.44;5029748;28;20032;-84
2022/03/23 11:06:10;;;;;;;41.92;30.48;;;;;;;14.59;42.64;103038.53;5021612;28;20190;-84
2022/03/23 11:08:36;;;;;;;36.17;29.30;;;;;;;14.51;40.89;103014.69;5011837;28;20031;-83
2022/03/23 11:16:46;;;;;;;37.30;29.67;;;;;;;14.91;42.69;103012.09;5021254;28;20040;-85
2022/03/23 11:19:18;;;;;;;34.80;27.90;;;;;;;15.19;40.77;103026.81;5011770;28;20040;-85
2022/03/23 11:22:06;;;;;;;35.60;28.30;;;;;;;15.31;41.57;103026.84;5029889;28;20029;-85
2022/03/23 11:24:44;;;;;;;39.88;29.88;;;;;;;15.28;40.59;103021.81;4998914;28;20038;-81
2022/03/23 11:27:18;;;;;;;42.10;30.35;;;;;;;15.35;41.89;103017.84;5013746;28;20030;-82
2022/03/23 11:29:47;;;;;;;31.60;26.70;;;;;;;15.38;37.06;103027.28;5014072;28;20485;-80
2022/03/23 11:32:24;;;;;;;32.00;26.55;;;;;;;15.47;39.71;103015.34;4997156;28;20042;-81
2022/03/23 11:34:50;;;;;;;34.78;29.60;;;;;;;15.51;39.65;103019.44;5014252;28;20042;-81
2022/03/23 11:37:19;;;;;;;35.38;28.33;;;;;;;15.66;38.09;103021.06;5016692;28;20543;-81
2022/03/23 11:39:45;;;;;;;34.85;27.23;;;;;;;15.99;37.92;103022.28;5023097;28;20041;-81
2022/03/23 11:42:13;;;;;;;34.25;28.20;;;;;;;15.84;38.19;102998.84;5017109;28;20052;-82
2022/03/23 11:44:40;;;;;;;34.38;27.77;;;;;;;16.11;37.41;103006.53;5018909;28;20396;-81
2022/03/23 11:47:25;;;;;;;33.72;27.10;;;;;;;16.31;39.06;103018.25;5013843;28;20025;-80
2022/03/23 11:50:21;;;;;;;31.73;26.65;;;;;;;16.43;37.60;103017.34;5014578;28;20069;-81
2022/03/23 11:52:57;;;;;;;32.92;26.75;;;;;;;16.53;36.80;103006.22;5014887;28;20026;-81
2022/03/23 11:55:42;;;;;;;30.95;27.08;;;;;;;16.53;36.85;102995.75;5019778;28;20060;-81
2022/03/23 11:58:15;;;;;;;34.75;27.95;;;;;;;16.72;36.22;103003.97;4993092;28;20543;-81
2022/03/23 12:00:44;;;;;;;31.67;25.80;;;;;;;16.68;35.78;102999.84;5020460;28;20343;-85
2022/03/23 12:03:09;;;;;;;;;;;;;;;16.86;38.26;103003.81;5010799;28;20287;-83
2022/03/23 12:05:36;;;;;;;36.40;28.13;;;;;;;16.80;34.82;102993.75;5028111;28;19915;-84
2022/03/23 12:08:03;;;;;;;33.13;27.00;;;;;;;16.82;35.66;102991.88;5022955;28;20465;-86
2022/03/23 12:10:32;;;;;;;33.75;27.02;;;;;;;16.86;35.33;102998.56;5028708;28;20037;-85
2022/03/23 12:13:14;;;;;;;33.30;27.02;;;;;;;16.83;35.14;102979.59;5028882;28;20033;-85
2022/03/23 12:15:58;;;;;;;32.08;26.65;;;;;;;16.95;35.61;102984.75;5019821;28;20318;-83
2022/03/23 12:18:58;;;;;;;32.75;27.02;;;;;;;17.13;36.06;102977.31;5017969;28;20445;-84
2022/03/23 12:21:33;;;;;;;29.90;23.95;;;;;;;17.02;33.57;102973.81;5008581;28;20148;-84
2022/03/23 12:24:07;;;;;;;29.35;24.17;;;;;;;17.21;34.23;102984.63;5010769;28;20087;-81
2022/03/23 12:26:39;;;;;;;29.02;24.40;;;;;;;17.16;32.18;102968.38;4996877;28;20029;-85
2022/03/23 12:29:25;;;;;;;28.10;23.83;;;;;;;17.31;33.39;102976.84;5006967;28;20048;-83